Terminal Aerodrome Forecast
Issued by NWS

Home | Current Version | Previous Version | Text Only | Print | Product List | Glossary On
Versions: 1 2 3 4 5 6 7 8 9 10 11 12 13 14 15
000
FTUS46 KSGX 191152
TAFONT
TAF
KONT 191152Z 1912/2018 26007KT 3SM RA BR BKN015
     FM191700 VRB07KT 6SM -SHRA BR SCT012 BKN022
     FM192100 24012G22KT P6SM VCSH SCT022 BKN035
     FM200500 25007KT P6SM BKN020
     FM201400 20012KT 3SM RA BR SCT008 BKN015=

USA.gov is the U.S. government's official web portal to all federal, state and local government web resources and services.